Time;durP1;ratioP1;P1;durP2;ratioP2;P2;SDS_P1;SDS_P2;PMS_P1;PMS_P2;Temp;Humidity;BMP_temperature;BMP_pressure;BME280_temperature;BME280_humidity;BME280_pressure;Samples;Min_cycle;Max_cycle;Signal;HPM_P1;HPM_P2
2022/03/21 00:01:47;;;;;;;51.47;36.90;;;6.00;92.80;;;;;;4989321;28;20225;-33
2022/03/21 00:04:15;;;;;;;46.30;35.47;;;6.00;92.70;;;;;;4992403;28;20804;-34
2022/03/21 00:06:47;;;;;;;51.70;36.20;;;6.00;92.80;;;;;;4991571;28;21006;-33
2022/03/21 00:09:16;;;;;;;45.07;35.90;;;5.90;92.80;;;;;;5007083;28;20625;-35
2022/03/21 00:11:44;;;;;;;49.80;36.00;;;5.90;92.80;;;;;;4993258;28;20343;-34
2022/03/21 00:14:15;;;;;;;51.40;37.70;;;5.90;92.80;;;;;;5001706;28;20217;-33
2022/03/21 00:16:54;;;;;;;49.50;36.07;;;5.80;92.80;;;;;;4999406;28;20206;-34
2022/03/21 00:19:21;;;;;;;47.60;36.47;;;5.80;92.80;;;;;;5009894;28;20221;-34
2022/03/21 00:49:19;;;;;;;51.97;36.87;;;5.40;92.90;;;;;;4994619;28;20212;-34
2022/03/21 00:51:51;;;;;;;53.40;36.83;;;5.40;92.70;;;;;;4993393;28;20226;-33
2022/03/21 00:54:20;;;;;;;55.40;38.93;;;5.40;92.80;;;;;;4998134;28;20296;-32
2022/03/21 00:56:48;;;;;;;49.27;36.00;;;5.40;92.70;;;;;;4992778;28;20237;-33
2022/03/21 00:59:15;;;;;;;53.00;39.17;;;5.40;92.70;;;;;;5009514;28;20280;-34
2022/03/21 01:14:54;;;;;;;52.13;36.40;;;5.30;92.70;;;;;;4996863;28;20667;-33
2022/03/21 01:17:24;;;;;;;51.73;37.20;;;5.30;92.70;;;;;;4987135;28;20299;-35
2022/03/21 01:19:54;;;;;;;48.73;37.07;;;5.30;92.70;;;;;;4999226;28;20206;-34
2022/03/21 01:22:31;;;;;;;52.00;38.43;;;5.30;92.70;;;;;;4991234;28;20213;-34
2022/03/21 01:25:03;;;;;;;52.80;37.53;;;5.30;92.80;;;;;;4997323;28;20288;-34
2022/03/21 01:27:34;;;;;;;56.13;39.23;;;5.30;92.90;;;;;;4993470;28;20228;-33
2022/03/21 01:30:08;;;;;;;51.60;37.77;;;5.30;92.90;;;;;;5006212;28;20202;-33
2022/03/21 01:32:35;;;;;;;54.80;39.00;;;5.30;92.80;;;;;;5014264;28;20903;-33
2022/03/21 01:35:04;;;;;;;55.57;38.30;;;5.30;92.90;;;;;;5007147;28;20201;-33
2022/03/21 01:37:31;;;;;;;52.83;38.80;;;5.30;92.80;;;;;;4993082;28;21587;-33
2022/03/21 01:39:59;;;;;;;51.70;37.20;;;5.20;92.80;;;;;;5007675;28;20268;-33
2022/03/21 01:42:28;;;;;;;52.87;38.37;;;5.20;92.90;;;;;;5002365;28;20312;-32
2022/03/21 01:44:57;;;;;;;52.47;38.67;;;5.20;92.90;;;;;;4993858;28;20210;-33
2022/03/21 01:47:25;;;;;;;55.90;38.53;;;5.20;92.80;;;;;;4999201;28;20232;-32
2022/03/21 01:49:56;;;;;;;53.83;38.73;;;5.20;92.80;;;;;;4998773;28;20202;-33
2022/03/21 01:52:24;;;;;;;56.47;38.90;;;5.20;92.90;;;;;;5006327;28;20214;-33
2022/03/21 01:57:48;;;;;;;52.30;36.33;;;5.10;92.90;;;;;;4989812;28;20210;-33
2022/03/21 02:00:18;;;;;;;47.77;35.40;;;5.10;92.90;;;;;;4998166;28;20256;-33
2022/03/21 02:07:15;;;;;;;54.87;38.67;;;5.10;93.00;;;;;;4990612;28;20279;-33
2022/03/21 02:09:45;;;;;;;49.67;37.63;;;5.10;92.90;;;;;;5000823;28;20210;-32
2022/03/21 02:12:13;;;;;;;53.33;38.27;;;5.00;93.00;;;;;;4997250;28;20205;-33
2022/03/21 02:14:41;;;;;;;53.53;38.87;;;5.00;92.90;;;;;;5000932;28;20600;-33
2022/03/21 02:17:18;;;;;;;53.10;37.33;;;5.00;92.90;;;;;;4999890;28;20225;-33
2022/03/21 02:19:47;;;;;;;52.93;38.77;;;5.00;93.00;;;;;;5006610;28;20752;-32
2022/03/21 02:22:31;;;;;;;50.83;36.53;;;5.00;92.90;;;;;;4992236;28;20237;-33
2022/03/21 02:25:35;;;;;;;49.53;36.83;;;5.00;93.10;;;;;;5002123;28;20665;-33
2022/03/21 02:28:09;;;;;;;54.57;38.10;;;5.00;93.10;;;;;;4990901;28;20300;-33
2022/03/21 02:30:42;;;;;;;50.13;37.20;;;5.00;93.00;;;;;;4992301;28;21937;-33
2022/03/21 02:33:10;;;;;;;49.80;36.93;;;4.90;92.90;;;;;;4993932;28;20207;-32
2022/03/21 02:35:43;;;;;;;50.03;36.47;;;5.00;93.00;;;;;;4987623;28;20214;-32
2022/03/21 02:38:13;;;;;;;52.70;38.03;;;4.90;92.90;;;;;;5003258;28;20213;-34
2022/03/21 02:40:46;;;;;;;50.57;37.37;;;4.90;93.20;;;;;;4995017;28;20253;-31
2022/03/21 02:43:15;;;;;;;52.40;37.90;;;4.90;93.00;;;;;;4994013;28;20206;-32
2022/03/21 02:45:49;;;;;;;51.57;37.20;;;4.90;93.00;;;;;;4994710;28;20205;-32
2022/03/21 02:48:22;;;;;;;51.77;38.53;;;4.90;92.90;;;;;;5000967;28;20204;-33
2022/03/21 02:50:56;;;;;;;52.63;38.53;;;4.90;93.00;;;;;;5001434;28;20205;-31
2022/03/21 02:53:27;;;;;;;55.43;39.23;;;4.80;93.00;;;;;;4994915;28;20442;-33
2022/03/21 02:55:58;;;;;;;51.97;38.03;;;4.90;93.00;;;;;;4986750;28;20221;-33
2022/03/21 02:58:25;;;;;;;51.77;37.20;;;4.80;93.00;;;;;;4983370;28;20690;-32
2022/03/21 03:00:53;;;;;;;58.03;38.40;;;4.80;92.90;;;;;;4993698;28;20225;-33
2022/03/21 03:03:20;;;;;;;53.47;38.93;;;4.90;93.00;;;;;;4988082;28;20225;-34
2022/03/21 03:05:54;;;;;;;52.00;36.80;;;4.80;93.00;;;;;;4987071;28;20217;-33
2022/03/21 03:08:24;;;;;;;52.53;37.70;;;4.90;93.00;;;;;;5000861;28;20198;-34
2022/03/21 03:10:51;;;;;;;54.33;38.83;;;4.90;93.00;;;;;;4993166;28;20816;-33
2022/03/21 03:13:18;;;;;;;53.23;38.13;;;4.90;93.00;;;;;;4993116;28;20252;-34
2022/03/21 03:15:47;;;;;;;49.70;37.57;;;4.80;93.00;;;;;;4996774;28;20530;-33
2022/03/21 03:18:17;;;;;;;53.90;36.73;;;4.90;93.10;;;;;;5000036;28;20300;-34
2022/03/21 03:20:54;;;;;;;54.10;38.63;;;4.80;93.00;;;;;;4994747;28;20218;-33
2022/03/21 03:23:24;;;;;;;53.57;39.03;;;4.80;93.10;;;;;;4990514;28;20832;-33
2022/03/21 03:26:03;;;;;;;53.10;38.90;;;4.80;93.10;;;;;;4991582;28;20207;-32
2022/03/21 03:28:31;;;;;;;53.07;38.43;;;4.80;93.20;;;;;;5001770;28;20672;-33
2022/03/21 03:31:20;;;;;;;52.60;38.30;;;4.80;93.10;;;;;;4998138;28;20783;-32
2022/03/21 03:33:50;;;;;;;56.90;37.77;;;4.80;93.10;;;;;;5008623;28;20633;-33
2022/03/21 03:36:17;;;;;;;56.03;40.07;;;4.80;93.10;;;;;;5005488;28;20264;-34
2022/03/21 03:38:48;;;;;;;51.83;38.10;;;4.80;93.10;;;;;;4993802;28;20640;-33
2022/03/21 03:41:18;;;;;;;53.50;38.13;;;4.80;93.20;;;;;;5003535;28;20223;-34
2022/03/21 03:43:47;;;;;;;52.83;38.47;;;4.80;93.10;;;;;;5003057;28;20201;-33
2022/03/21 03:46:17;;;;;;;52.43;38.10;;;4.80;93.20;;;;;;5009014;28;20704;-33
2022/03/21 03:48:48;;;;;;;51.77;37.67;;;4.80;93.20;;;;;;5002703;28;20248;-33
2022/03/21 03:51:18;;;;;;;51.90;37.00;;;4.70;93.20;;;;;;5001822;28;20724;-32
2022/03/21 03:53:45;;;;;;;51.17;37.53;;;4.70;93.10;;;;;;5003500;28;20276;-33
2022/03/21 03:56:12;;;;;;;56.20;39.13;;;4.70;93.10;;;;;;4996446;28;20217;-34
2022/03/21 03:58:39;;;;;;;52.33;38.27;;;4.70;93.20;;;;;;5003973;28;20693;-34
2022/03/21 04:01:10;;;;;;;51.03;37.80;;;4.70;93.20;;;;;;4991849;28;20231;-34
2022/03/21 04:03:46;;;;;;;54.03;39.53;;;4.60;93.10;;;;;;4997059;28;20221;-32
2022/03/21 04:06:21;;;;;;;52.47;37.57;;;4.60;93.20;;;;;;4988033;28;20220;-32
2022/03/21 04:08:50;;;;;;;54.27;38.37;;;4.60;93.20;;;;;;5000681;28;20749;-33
2022/03/21 04:11:20;;;;;;;53.60;39.27;;;4.60;93.10;;;;;;5002617;28;20257;-32
2022/03/21 04:13:49;;;;;;;54.23;38.40;;;4.60;93.20;;;;;;5004585;28;20249;-32
2022/03/21 04:16:17;;;;;;;52.47;38.50;;;4.60;93.10;;;;;;4993885;28;20202;-32
2022/03/21 04:18:46;;;;;;;53.00;39.10;;;4.60;93.10;;;;;;4993063;28;20246;-33
2022/03/21 04:21:34;;;;;;;51.77;39.30;;;4.60;93.20;;;;;;4995430;28;20230;-33
2022/03/21 04:24:02;;;;;;;54.27;38.83;;;4.60;93.20;;;;;;4996533;28;20202;-33
2022/03/21 04:26:29;;;;;;;51.87;39.53;;;4.60;93.20;;;;;;4986934;28;20233;-33
2022/03/21 04:29:04;;;;;;;54.70;39.47;;;4.60;93.20;;;;;;4982193;28;20198;-33
2022/03/21 04:31:34;;;;;;;55.93;38.57;;;4.50;93.30;;;;;;4990661;28;20209;-33
2022/03/21 04:34:02;;;;;;;54.40;38.63;;;4.50;93.20;;;;;;5002521;28;20229;-33
2022/03/21 04:36:31;;;;;;;55.20;38.83;;;4.50;93.20;;;;;;4988873;28;20238;-33
2022/03/21 04:39:01;;;;;;;58.27;40.63;;;4.50;93.20;;;;;;4999154;28;20213;-33
2022/03/21 04:41:30;;;;;;;52.57;37.80;;;4.50;93.20;;;;;;5008559;28;20229;-32
2022/03/21 04:44:00;;;;;;;57.40;39.07;;;4.50;93.30;;;;;;5007073;28;20627;-32
2022/03/21 04:46:30;;;;;;;54.00;37.97;;;4.50;93.30;;;;;;5022684;28;20233;-33
2022/03/21 04:48:57;;;;;;;54.27;39.00;;;4.40;93.20;;;;;;5000998;28;20265;-32
2022/03/21 04:51:24;;;;;;;57.27;40.63;;;4.40;93.30;;;;;;4996109;28;20212;-32
2022/03/21 04:53:51;;;;;;;51.77;39.03;;;4.40;93.20;;;;;;5002924;28;20241;-32
2022/03/21 04:56:24;;;;;;;57.23;40.00;;;4.40;93.20;;;;;;5003084;28;20693;-32
2022/03/21 04:58:51;;;;;;;53.77;38.50;;;4.40;93.30;;;;;;4989587;28;20226;-33
2022/03/21 05:01:24;;;;;;;57.30;39.50;;;4.40;93.20;;;;;;4998643;28;20217;-32
2022/03/21 05:03:53;;;;;;;54.17;38.13;;;4.40;93.30;;;;;;5008419;28;20206;-33
2022/03/21 05:06:24;;;;;;;52.10;37.63;;;4.40;93.30;;;;;;4991165;28;20273;-32
2022/03/21 05:08:52;;;;;;;54.23;38.70;;;4.40;93.20;;;;;;4989635;28;20676;-32
2022/03/21 05:11:19;;;;;;;53.57;38.53;;;4.40;93.40;;;;;;4993885;28;20222;-32
2022/03/21 05:13:46;;;;;;;53.20;38.93;;;4.30;93.40;;;;;;4998507;28;20233;-33
2022/03/21 05:16:21;;;;;;;51.43;38.63;;;4.30;93.70;;;;;;4995811;28;20311;-33
2022/03/21 05:18:54;;;;;;;54.77;38.70;;;4.30;93.40;;;;;;5000120;28;20669;-33
2022/03/21 05:21:26;;;;;;;50.40;37.50;;;4.30;93.30;;;;;;4987542;28;20329;-32
2022/03/21 05:32:13;;;;;;;53.67;38.10;;;4.30;93.40;;;;;;4993617;28;20217;-33
2022/03/21 05:37:30;;;;;;;52.07;38.13;;;4.30;93.30;;;;;;4993757;28;20715;-34
2022/03/21 05:42:43;;;;;;;55.57;38.77;;;4.40;93.40;;;;;;5000390;28;20677;-33
2022/03/21 05:45:11;;;;;;;56.93;39.40;;;4.40;93.40;;;;;;4987406;28;20194;-32
2022/03/21 05:48:50;;;;;;;50.37;36.17;;;4.40;93.50;;;;;;5007198;28;20570;-33
2022/03/21 05:50:27;;;;;;;52.67;36.63;;;4.40;93.50;;;;;;4987348;28;20205;-33
2022/03/21 05:52:54;;;;;;;51.67;37.40;;;4.50;93.50;;;;;;4991505;28;20344;-32
2022/03/21 05:55:25;;;;;;;53.33;38.20;;;4.50;93.50;;;;;;4992580;28;20357;-32
2022/03/21 05:57:57;;;;;;;56.37;38.70;;;4.50;93.50;;;;;;4994560;28;20234;-33
2022/03/21 06:00:25;;;;;;;52.10;36.47;;;4.50;93.60;;;;;;5004384;28;20215;-33
2022/03/21 06:02:53;;;;;;;53.00;37.33;;;4.50;93.60;;;;;;4990709;28;20225;-34
2022/03/21 06:05:22;;;;;;;53.83;38.60;;;4.60;93.70;;;;;;4996912;28;20241;-34
2022/03/21 06:07:51;;;;;;;48.80;36.43;;;4.60;93.70;;;;;;5004756;28;20213;-33
2022/03/21 06:10:18;;;;;;;46.87;35.13;;;4.60;93.70;;;;;;5002389;28;20240;-33
2022/03/21 06:12:50;;;;;;;47.77;35.17;;;4.60;93.70;;;;;;4990570;28;20528;-33
2022/03/21 06:15:20;;;;;;;51.10;35.83;;;4.60;93.70;;;;;;4990714;28;20363;-34
2022/03/21 06:17:57;;;;;;;50.07;36.67;;;4.60;93.80;;;;;;4988820;28;20216;-31
2022/03/21 06:20:29;;;;;;;52.00;36.30;;;4.60;93.80;;;;;;4990426;28;20206;-32
2022/03/21 06:22:57;;;;;;;51.10;36.27;;;4.60;93.70;;;;;;4991121;28;20229;-33
2022/03/21 06:25:25;;;;;;;49.53;36.10;;;4.70;93.80;;;;;;4998582;28;20210;-32
2022/03/21 06:27:59;;;;;;;52.93;36.23;;;4.70;93.80;;;;;;4997524;28;20534;-32
2022/03/21 06:30:26;;;;;;;49.93;36.03;;;4.70;93.90;;;;;;5004239;28;20211;-33
2022/03/21 06:32:54;;;;;;;50.47;34.77;;;4.70;93.80;;;;;;4991886;28;21342;-33
2022/03/21 06:35:21;;;;;;;49.47;35.53;;;4.80;93.90;;;;;;4989554;28;20336;-33
2022/03/21 06:37:48;;;;;;;49.83;35.33;;;4.80;94.00;;;;;;4988395;28;20509;-32
2022/03/21 06:40:23;;;;;;;48.03;34.57;;;4.80;94.00;;;;;;4988911;28;20586;-33
2022/03/21 06:42:53;;;;;;;49.33;34.73;;;4.80;94.10;;;;;;4998395;28;20229;-33
2022/03/21 06:45:21;;;;;;;49.30;34.73;;;4.80;94.10;;;;;;4995465;28;20214;-33
2022/03/21 06:47:51;;;;;;;52.67;36.20;;;4.90;94.10;;;;;;4986225;28;20222;-32
2022/03/21 06:50:20;;;;;;;51.20;35.67;;;4.90;94.20;;;;;;4987725;28;20317;-34
2022/03/21 06:52:47;;;;;;;50.83;35.50;;;4.90;94.20;;;;;;4990224;28;20763;-33
2022/03/21 06:55:17;;;;;;;48.20;35.23;;;4.90;94.20;;;;;;4994291;28;20766;-33
2022/03/21 06:57:45;;;;;;;48.60;34.77;;;5.00;94.20;;;;;;4992295;28;20253;-33
2022/03/21 07:00:16;;;;;;;47.60;34.40;;;5.00;94.20;;;;;;4998220;28;20293;-33
2022/03/21 07:02:46;;;;;;;47.97;33.73;;;5.00;94.30;;;;;;4989203;28;20748;-33
2022/03/21 07:05:16;;;;;;;47.57;33.50;;;5.10;94.40;;;;;;5003711;28;20202;-34
2022/03/21 07:07:43;;;;;;;49.20;34.73;;;5.10;94.30;;;;;;5003933;28;20297;-32
2022/03/21 07:10:13;;;;;;;47.43;34.00;;;5.20;94.40;;;;;;4990873;28;20202;-33
2022/03/21 07:12:40;;;;;;;49.73;33.70;;;5.20;94.50;;;;;;5004635;28;20198;-34
2022/03/21 07:15:10;;;;;;;50.10;34.03;;;5.20;94.50;;;;;;4995869;28;20284;-33
2022/03/21 07:17:42;;;;;;;51.83;33.47;;;5.30;94.50;;;;;;4998404;28;20213;-34
2022/03/21 07:20:11;;;;;;;47.80;33.83;;;5.30;94.60;;;;;;4998260;28;20209;-34
2022/03/21 07:22:41;;;;;;;48.77;34.10;;;5.40;94.60;;;;;;4996878;28;20276;-32
2022/03/21 07:25:15;;;;;;;47.97;34.73;;;5.40;94.60;;;;;;4990731;28;20347;-34
2022/03/21 07:27:45;;;;;;;48.67;33.03;;;5.50;94.70;;;;;;4989938;28;20317;-33
2022/03/21 07:30:27;;;;;;;46.83;32.90;;;5.50;94.70;;;;;;5012551;28;20299;-33
2022/03/21 07:32:57;;;;;;;46.93;33.03;;;5.60;94.80;;;;;;4995350;28;20201;-32
2022/03/21 07:35:30;;;;;;;42.23;31.97;;;5.70;94.80;;;;;;5012059;28;20229;-33
2022/03/21 07:37:58;;;;;;;46.93;32.70;;;5.70;94.80;;;;;;5005007;28;20256;-33
2022/03/21 07:40:28;;;;;;;46.33;32.60;;;5.80;94.90;;;;;;4988684;28;20210;-33
2022/03/21 07:42:55;;;;;;;44.87;31.20;;;5.90;95.00;;;;;;4995015;28;20253;-33
2022/03/21 07:48:14;;;;;;;42.47;31.63;;;6.00;95.10;;;;;;5005922;28;20237;-33
2022/03/21 07:50:44;;;;;;;45.70;32.93;;;6.10;95.10;;;;;;4992776;28;20217;-33
2022/03/21 07:53:11;;;;;;;47.00;30.70;;;6.20;95.20;;;;;;4987419;28;20676;-33
2022/03/21 07:55:46;;;;;;;43.60;30.53;;;6.30;95.30;;;;;;4989318;28;20736;-33
2022/03/21 07:58:13;;;;;;;47.20;31.40;;;6.40;95.30;;;;;;4991094;28;20683;-33
2022/03/21 08:00:43;;;;;;;40.57;29.17;;;6.50;95.40;;;;;;5001806;28;20198;-34
2022/03/21 08:03:12;;;;;;;40.87;27.23;;;6.60;95.50;;;;;;5004826;28;20313;-34
2022/03/21 08:05:41;;;;;;;34.83;23.27;;;6.70;95.50;;;;;;5007700;28;20663;-33
2022/03/21 08:08:16;;;;;;;36.00;22.87;;;6.80;95.60;;;;;;5005242;28;20213;-33
2022/03/21 08:10:51;;;;;;;34.87;22.30;;;6.90;95.60;;;;;;5009913;28;20201;-34
2022/03/21 08:13:21;;;;;;;32.33;21.33;;;7.00;95.70;;;;;;5009381;28;20205;-34
2022/03/21 08:15:52;;;;;;;34.73;22.77;;;7.10;95.80;;;;;;4994698;28;20743;-34
2022/03/21 08:18:19;;;;;;;30.87;22.10;;;7.20;95.90;;;;;;5023881;28;20219;-34
2022/03/21 08:20:47;;;;;;;30.73;21.33;;;7.30;95.90;;;;;;5002886;28;20203;-34
2022/03/21 08:23:16;;;;;;;29.43;20.90;;;7.40;96.00;;;;;;5008061;28;20253;-34
2022/03/21 08:25:47;;;;;;;26.57;19.90;;;7.50;96.00;;;;;;5006715;28;20603;-33
2022/03/21 08:28:17;;;;;;;27.93;19.87;;;7.60;96.00;;;;;;5008339;28;20228;-34
2022/03/21 08:30:51;;;;;;;27.90;20.63;;;7.70;96.20;;;;;;4999688;28;20361;-34
2022/03/21 08:33:21;;;;;;;28.10;19.13;;;7.80;96.30;;;;;;5002404;28;20205;-33
2022/03/21 08:35:53;;;;;;;25.30;18.77;;;7.90;96.30;;;;;;5003717;28;20281;-34
2022/03/21 08:38:28;;;;;;;25.67;18.90;;;8.00;96.40;;;;;;4995606;28;20256;-34
2022/03/21 08:40:58;;;;;;;26.73;18.90;;;8.10;96.50;;;;;;5022540;28;20202;-34
2022/03/21 08:43:27;;;;;;;28.53;19.93;;;8.20;96.60;;;;;;4999639;28;20233;-34
2022/03/21 08:45:55;;;;;;;26.37;18.87;;;8.30;96.90;;;;;;5000166;28;20593;-34
2022/03/21 08:49:23;;;;;;;26.67;19.33;;;8.40;96.70;;;;;;5003092;28;20216;-33
2022/03/21 08:51:13;;;;;;;27.43;20.20;;;8.50;96.80;;;;;;5005619;28;20199;-34
2022/03/21 08:53:40;;;;;;;25.47;18.53;;;8.60;96.80;;;;;;4994527;28;20348;-34
2022/03/21 08:56:08;;;;;;;26.93;18.83;;;8.70;96.90;;;;;;5018600;28;20978;-35
2022/03/21 08:58:35;;;;;;;23.73;17.80;;;8.80;97.00;;;;;;4997696;28;20602;-34
2022/03/21 09:01:03;;;;;;;23.97;17.97;;;8.90;97.00;;;;;;4989651;28;20297;-34
2022/03/21 09:03:30;;;;;;;28.50;18.90;;;9.00;97.10;;;;;;4993387;28;20328;-34
2022/03/21 09:05:58;;;;;;;50.33;23.50;;;9.10;97.20;;;;;;4993878;28;20297;-34
2022/03/21 09:08:34;;;;;;;33.63;19.93;;;9.20;97.30;;;;;;5005078;28;20204;-33
2022/03/21 09:11:04;;;;;;;33.13;19.27;;;9.30;97.40;;;;;;5000842;28;20285;-34
2022/03/21 09:13:36;;;;;;;29.10;19.80;;;9.40;97.40;;;;;;4996389;28;20695;-33
2022/03/21 09:16:05;;;;;;;27.77;18.70;;;9.50;97.50;;;;;;4995829;28;20429;-34
2022/03/21 09:18:37;;;;;;;22.97;16.93;;;9.60;97.60;;;;;;4999939;28;20308;-33
2022/03/21 09:21:09;;;;;;;22.13;16.80;;;9.70;97.60;;;;;;5005644;28;20219;-33
2022/03/21 09:23:39;;;;;;;23.57;16.30;;;9.80;97.70;;;;;;5001059;28;20225;-34
2022/03/21 09:26:11;;;;;;;27.47;16.63;;;9.90;97.80;;;;;;4994482;28;20282;-34
2022/03/21 09:28:44;;;;;;;22.97;16.60;;;9.90;97.80;;;;;;4998944;28;20605;-34
2022/03/21 09:31:13;;;;;;;26.17;15.47;;;10.00;97.40;;;;;;5005449;28;20206;-34
2022/03/21 09:34:00;;;;;;;23.93;15.93;;;10.10;97.40;;;;;;5007498;28;20607;-33
2022/03/21 09:36:27;;;;;;;21.70;15.13;;;10.20;97.50;;;;;;5015692;28;20237;-33
2022/03/21 09:38:55;;;;;;;23.80;16.10;;;10.30;97.60;;;;;;5002751;28;20206;-33
2022/03/21 09:41:29;;;;;;;23.97;16.03;;;10.40;97.70;;;;;;4982685;28;20217;-34
2022/03/21 09:44:03;;;;;;;19.87;14.73;;;10.50;97.80;;;;;;4999428;28;20240;-33
2022/03/21 09:46:33;;;;;;;19.33;14.17;;;10.60;97.80;;;;;;5006453;28;20202;-34
2022/03/21 09:49:03;;;;;;;19.83;13.97;;;10.70;97.90;;;;;;5007059;28;20193;-34
2022/03/21 09:51:35;;;;;;;19.83;14.60;;;10.80;97.90;;;;;;5005939;28;20646;-33
2022/03/21 09:54:03;;;;;;;20.33;13.63;;;10.90;98.10;;;;;;5002232;28;20237;-34
2022/03/21 09:56:33;;;;;;;18.50;13.73;;;11.00;98.10;;;;;;5006137;28;20205;-32
2022/03/21 09:59:05;;;;;;;20.10;14.33;;;11.10;98.20;;;;;;5007040;28;20280;-32
2022/03/21 10:01:34;;;;;;;19.10;14.77;;;11.20;98.30;;;;;;5000714;28;20238;-33
2022/03/21 10:04:02;;;;;;;20.07;13.13;;;11.30;98.40;;;;;;4989352;28;20230;-33
2022/03/21 10:06:35;;;;;;;19.87;13.70;;;11.40;98.40;;;;;;5000173;28;20206;-33
2022/03/21 10:09:12;;;;;;;19.23;14.10;;;11.50;98.50;;;;;;5006215;28;20217;-33
2022/03/21 10:11:50;;;;;;;20.37;14.23;;;11.60;98.50;;;;;;4999335;28;20467;-32
2022/03/21 10:14:22;;;;;;;19.87;13.23;;;11.70;98.60;;;;;;5001755;28;20221;-32
2022/03/21 10:16:58;;;;;;;20.77;13.30;;;11.80;98.70;;;;;;4995424;28;20626;-32
2022/03/21 10:19:42;;;;;;;19.30;13.00;;;11.80;98.70;;;;;;4998042;28;20202;-32
2022/03/21 10:22:12;;;;;;;19.33;14.17;;;11.90;98.80;;;;;;5001295;28;20185;-32
2022/03/21 10:24:44;;;;;;;19.83;13.53;;;12.00;98.90;;;;;;5001901;28;20230;-32
2022/03/21 10:27:28;;;;;;;19.90;14.67;;;12.20;99.00;;;;;;4991350;28;20194;-32
2022/03/21 10:30:12;;;;;;;28.20;13.77;;;12.30;99.10;;;;;;4995548;28;20349;-32
2022/03/21 10:32:51;;;;;;;17.00;12.77;;;12.40;99.10;;;;;;4996239;28;20230;-32
2022/03/21 10:35:24;;;;;;;17.87;13.23;;;12.50;99.30;;;;;;4988050;28;20220;-32
2022/03/21 10:38:01;;;;;;;19.10;12.53;;;12.60;99.30;;;;;;4998805;28;20197;-32
2022/03/21 10:40:42;;;;;;;15.97;11.80;;;12.70;99.40;;;;;;5004182;28;20225;-33
2022/03/21 10:43:16;;;;;;;15.17;11.80;;;12.80;99.40;;;;;;4987402;28;20222;-34
2022/03/21 10:45:49;;;;;;;14.33;11.70;;;12.90;99.50;;;;;;5001059;28;20208;-33
2022/03/21 10:48:24;;;;;;;15.20;12.37;;;13.00;99.60;;;;;;5009511;28;20699;-33
2022/03/21 10:50:55;;;;;;;15.00;11.43;;;13.10;99.70;;;;;;5002884;28;20396;-33
2022/03/21 10:53:58;;;;;;;19.70;12.47;;;13.10;99.70;;;;;;4987903;28;20739;-33
2022/03/21 10:56:25;;;;;;;14.40;11.33;;;13.30;99.80;;;;;;4983704;28;20210;-33
2022/03/21 10:58:58;;;;;;;18.60;11.83;;;13.30;99.80;;;;;;4994222;28;20248;-32
2022/03/21 11:01:31;;;;;;;15.48;11.50;;;13.40;99.90;;;;;;5002605;28;20236;-32
2022/03/21 11:04:02;;;;;;;16.43;11.60;;;13.50;99.90;;;;;;5002939;28;20245;-32
2022/03/21 11:06:29;;;;;;;14.07;11.23;;;13.60;99.90;;;;;;4998950;28;20228;-33
2022/03/21 11:09:02;;;;;;;18.23;11.50;;;13.70;99.90;;;;;;4993148;28;20292;-33
2022/03/21 11:11:30;;;;;;;13.90;11.40;;;13.80;99.90;;;;;;4990909;28;20201;-32
2022/03/21 11:13:57;;;;;;;14.97;11.37;;;13.90;99.90;;;;;;4996873;28;20213;-34
2022/03/21 11:16:29;;;;;;;13.03;11.03;;;14.00;99.90;;;;;;4989869;28;20218;-34
2022/03/21 11:18:59;;;;;;;14.63;11.20;;;14.20;99.90;;;;;;5007197;28;20211;-33
2022/03/21 11:21:30;;;;;;;17.35;11.35;;;14.30;99.90;;;;;;4998331;28;20288;-33
2022/03/21 11:23:58;;;;;;;14.60;10.35;;;14.30;99.90;;;;;;5001191;28;20340;-33
2022/03/21 11:26:49;;;;;;;13.70;10.73;;;14.50;99.90;;;;;;5019405;28;20213;-33
2022/03/21 11:29:54;;;;;;;16.55;9.95;;;14.60;99.90;;;;;;5000052;28;20228;-33
2022/03/21 11:32:41;;;;;;;14.50;10.60;;;14.70;99.90;;;;;;4974926;28;20209;-33
2022/03/21 11:35:22;;;;;;;14.47;10.17;;;14.80;99.90;;;;;;4991315;28;20225;-33
2022/03/21 11:37:50;;;;;;;16.83;10.63;;;14.80;99.90;;;;;;4991028;28;20228;-33
2022/03/21 11:40:33;;;;;;;14.43;9.93;;;14.90;99.90;;;;;;4998146;28;20670;-33
2022/03/21 11:43:18;;;;;;;13.00;10.27;;;15.00;99.90;;;;;;4994648;28;20270;-33
2022/03/21 11:45:54;;;;;;;13.32;11.02;;;15.10;99.90;;;;;;4998145;28;20234;-33
2022/03/21 11:48:25;;;;;;;14.77;9.40;;;15.20;99.90;;;;;;4999742;28;20194;-33
2022/03/21 11:50:55;;;;;;;15.93;10.65;;;15.30;99.90;;;;;;5006912;28;20205;-32
2022/03/21 11:53:31;;;;;;;15.05;10.98;;;15.30;99.90;;;;;;4988892;28;20199;-33
2022/03/21 11:55:59;;;;;;;14.63;10.50;;;15.40;99.90;;;;;;5001948;28;20213;-33
2022/03/21 11:58:41;;;;;;;17.20;10.75;;;15.50;99.90;;;;;;5020314;28;20573;-32
2022/03/21 12:01:13;;;;;;;14.13;10.50;;;15.60;99.90;;;;;;5003919;28;20277;-32
2022/03/21 12:03:43;;;;;;;15.07;11.00;;;15.70;99.90;;;;;;5009026;28;20589;-33
2022/03/21 12:06:40;;;;;;;13.77;10.55;;;15.70;99.90;;;;;;5007104;28;20197;-33
2022/03/21 12:09:13;;;;;;;11.60;9.82;;;15.80;99.90;;;;;;4993532;28;20268;-32
2022/03/21 12:11:41;;;;;;;12.27;9.55;;;15.90;99.90;;;;;;4996364;28;20677;-32
2022/03/21 12:14:48;;;;;;;13.15;9.55;;;16.00;99.90;;;;;;4993178;28;20623;-33
2022/03/21 12:17:20;;;;;;;12.15;9.63;;;16.10;99.90;;;;;;4990895;28;20809;-32
2022/03/21 12:19:47;;;;;;;15.32;10.60;;;16.10;99.90;;;;;;4991009;28;20214;-32
2022/03/21 12:22:27;;;;;;;14.90;10.60;;;16.20;99.90;;;;;;5003531;28;20214;-33
2022/03/21 12:25:17;;;;;;;11.83;10.07;;;16.30;99.90;;;;;;5001611;28;20233;-33
2022/03/21 12:27:47;;;;;;;15.07;10.02;;;16.30;99.90;;;;;;4989811;28;20787;-32
2022/03/21 12:30:27;;;;;;;18.75;10.88;;;16.40;99.90;;;;;;5002706;28;20210;-32
2022/03/21 12:33:10;;;;;;;13.40;9.73;;;16.50;99.90;;;;;;4998441;28;20265;-32
2022/03/21 12:35:42;;;;;;;13.95;9.93;;;16.50;99.90;;;;;;5002013;28;20693;-33
2022/03/21 12:38:22;;;;;;;12.25;9.13;;;16.60;99.90;;;;;;5002935;28;20198;-32
2022/03/21 12:41:03;;;;;;;13.85;9.85;;;16.70;99.90;;;;;;4994929;28;20665;-32
2022/03/21 12:43:41;;;;;;;24.95;11.52;;;16.70;99.90;;;;;;4989293;28;20232;-31
2022/03/21 12:46:18;;;;;;;21.35;10.77;;;16.80;99.90;;;;;;4989665;28;20677;-31
2022/03/21 12:49:00;;;;;;;16.40;9.82;;;16.80;99.90;;;;;;5008938;28;20197;-31
2022/03/21 12:51:35;;;;;;;12.15;9.23;;;16.90;99.90;;;;;;5007516;28;20202;-34
2022/03/21 12:54:26;;;;;;;11.88;8.90;;;16.90;99.90;;;;;;5003739;28;20233;-33
2022/03/21 12:57:05;;;;;;;12.27;8.88;;;17.00;99.90;;;;;;5008909;28;20260;-33
2022/03/21 12:59:34;;;;;;;10.68;8.60;;;17.00;99.90;;;;;;5021406;28;20256;-33
2022/03/21 13:02:07;;;;;;;12.13;8.60;;;17.00;99.90;;;;;;5006817;28;20716;-32
2022/03/21 13:10:36;;;;;;;14.32;9.20;;;17.20;99.90;;;;;;4989524;28;20265;-33
2022/03/21 13:13:06;;;;;;;15.15;8.27;;;17.20;99.90;;;;;;4993199;28;20202;-33
2022/03/21 13:15:35;;;;;;;10.05;7.93;;;17.30;99.90;;;;;;5004245;28;20622;-33
2022/03/21 13:18:04;;;;;;;12.43;7.95;;;17.30;99.90;;;;;;4989468;28;20697;-32
2022/03/21 13:20:34;;;;;;;10.55;8.40;;;17.40;99.90;;;;;;4991933;28;20207;-32
2022/03/21 13:23:04;;;;;;;9.35;8.10;;;17.50;99.90;;;;;;4996911;28;20214;-32
2022/03/21 13:25:38;;;;;;;9.88;7.65;;;17.50;99.90;;;;;;5007965;28;20205;-32
2022/03/21 13:28:33;;;;;;;11.25;8.15;;;17.50;99.90;;;;;;4990997;28;20314;-32
2022/03/21 13:31:09;;;;;;;11.23;8.48;;;17.60;99.90;;;;;;4990127;28;20205;-32
2022/03/21 13:33:40;;;;;;;11.18;7.60;;;17.60;99.90;;;;;;4998197;28;20197;-33
2022/03/21 13:36:23;;;;;;;13.30;8.38;;;17.70;99.90;;;;;;5006154;28;20202;-32
2022/03/21 13:39:09;;;;;;;14.40;8.43;;;17.70;99.90;;;;;;5007982;28;20209;-33
2022/03/21 13:42:04;;;;;;;11.13;7.95;;;17.80;99.90;;;;;;5006533;28;20211;-33
2022/03/21 13:44:42;;;;;;;10.85;7.88;;;17.80;99.90;;;;;;5003951;28;20237;-33
2022/03/21 13:47:21;;;;;;;10.40;8.30;;;17.90;99.90;;;;;;4996976;28;20691;-33
2022/03/21 13:50:04;;;;;;;13.85;9.02;;;17.90;99.90;;;;;;5005694;28;20198;-34
2022/03/21 13:52:54;;;;;;;13.70;9.70;;;17.90;99.90;;;;;;5021021;28;20200;-33
2022/03/21 13:55:24;;;;;;;16.88;9.43;;;17.90;99.90;;;;;;4999046;28;20239;-33
2022/03/21 13:58:00;;;;;;;11.25;8.57;;;18.00;99.90;;;;;;5004626;28;20214;-34
2022/03/21 14:00:53;;;;;;;12.57;8.50;;;18.00;99.90;;;;;;4996954;28;20300;-34
2022/03/21 14:03:33;;;;;;;13.05;8.10;;;18.10;99.90;;;;;;4991055;28;20619;-34
2022/03/21 14:06:06;;;;;;;15.60;8.60;;;18.10;99.90;;;;;;5007421;28;20707;-34
2022/03/21 14:08:36;;;;;;;15.10;8.70;;;18.20;99.90;;;;;;5004976;28;20233;-33
2022/03/21 14:11:09;;;;;;;10.57;7.80;;;18.20;99.90;;;;;;5003358;28;20210;-34
2022/03/21 14:13:40;;;;;;;20.67;9.00;;;18.30;99.90;;;;;;4999013;28;20652;-34